Time;durP1;ratioP1;P1;durP2;ratioP2;P2;SDS_P1;SDS_P2;PMS_P1;PMS_P2;Temp;Humidity;BMP_temperature;BMP_pressure;BME280_temperature;BME280_humidity;BME280_pressure;Samples;Min_cycle;Max_cycle;Signal;HPM_P1;HPM_P2
2020/12/31 00:00:41;;;;;;;5.65;4.43;;;1.00;99.90;;;;;;4766546;30;20494;-77
2020/12/31 00:03:08;;;;;;;6.40;4.28;;;1.00;99.90;;;;;;4767529;29;20416;-77
2020/12/31 00:05:39;;;;;;;6.05;4.55;;;1.00;99.90;;;;;;4766671;30;20143;-77
2020/12/31 00:08:10;;;;;;;5.93;4.53;;;1.00;99.90;;;;;;4751525;30;20075;-77
2020/12/31 00:10:42;;;;;;;5.82;4.18;;;1.00;99.90;;;;;;4766466;30;20056;-77
2020/12/31 00:13:13;;;;;;;5.25;4.45;;;0.90;99.90;;;;;;4751980;30;20538;-77
2020/12/31 00:15:39;;;;;;;6.45;4.65;;;0.90;99.90;;;;;;4766389;30;20116;-77
2020/12/31 00:18:11;;;;;;;6.38;4.65;;;0.90;99.90;;;;;;4751760;30;20047;-77
2020/12/31 00:20:42;;;;;;;5.28;3.90;;;0.80;99.90;;;;;;4752082;30;20747;-77
2020/12/31 00:23:13;;;;;;;5.50;4.22;;;0.80;99.90;;;;;;4766045;29;20701;-77
2020/12/31 00:25:52;;;;;;;5.70;3.80;;;0.80;99.90;;;;;;4766130;30;20105;-77
2020/12/31 00:28:23;;;;;;;6.18;4.20;;;0.80;99.90;;;;;;4751433;30;20047;-77
2020/12/31 00:30:55;;;;;;;4.85;3.88;;;0.90;99.90;;;;;;4751922;30;20428;-78
2020/12/31 00:33:26;;;;;;;6.10;4.40;;;0.80;99.90;;;;;;4751813;30;20048;-79
2020/12/31 00:35:57;;;;;;;5.47;3.88;;;0.80;99.90;;;;;;4767296;30;20389;-79
2020/12/31 00:38:28;;;;;;;6.53;4.13;;;0.80;99.90;;;;;;4751387;30;20100;-79
2020/12/31 00:41:01;;;;;;;5.05;4.05;;;0.80;99.90;;;;;;4751747;30;20487;-79
2020/12/31 00:43:32;;;;;;;5.82;4.20;;;0.80;99.90;;;;;;4765949;30;20056;-80
2020/12/31 00:46:04;;;;;;;6.40;4.75;;;0.80;99.90;;;;;;4765771;30;20051;-79
2020/12/31 00:48:35;;;;;;;5.60;4.60;;;0.70;99.90;;;;;;4765498;30;20447;-79
2020/12/31 00:51:07;;;;;;;6.10;5.05;;;0.60;99.90;;;;;;4751630;30;20052;-79
2020/12/31 00:53:40;;;;;;;4.88;3.70;;;0.60;99.90;;;;;;4766005;30;20043;-80
2020/12/31 00:56:13;;;;;;;5.43;4.15;;;0.60;99.90;;;;;;4750115;30;20077;-79
2020/12/31 00:58:44;;;;;;;5.60;4.22;;;0.60;99.90;;;;;;4761460;30;20519;-79
2020/12/31 01:01:15;;;;;;;6.05;4.18;;;0.60;99.90;;;;;;4772777;30;20051;-79
2020/12/31 01:03:47;;;;;;;7.72;4.50;;;0.50;99.90;;;;;;4758594;30;20123;-78
2020/12/31 01:06:19;;;;;;;5.80;3.72;;;0.40;99.90;;;;;;4779804;30;20075;-78
2020/12/31 01:08:50;;;;;;;6.75;4.88;;;0.40;99.90;;;;;;4754054;30;20134;-78
2020/12/31 01:11:22;;;;;;;7.25;5.20;;;0.30;99.90;;;;;;4775828;30;20527;-79
2020/12/31 01:13:48;;;;;;;7.93;5.25;;;0.30;99.90;;;;;;4766063;29;20070;-78
2020/12/31 01:16:16;;;;;;;6.53;4.53;;;0.30;99.90;;;;;;4780158;30;20054;-78
2020/12/31 01:18:51;;;;;;;6.60;4.50;;;0.30;99.90;;;;;;4767158;30;20146;-78
2020/12/31 01:21:23;;;;;;;4.93;4.03;;;0.20;99.90;;;;;;4782718;30;20469;-79
2020/12/31 01:23:54;;;;;;;6.28;4.72;;;0.20;99.90;;;;;;4783162;30;20134;-78
2020/12/31 01:26:33;;;;;;;5.40;4.50;;;0.10;99.90;;;;;;4784751;29;20047;-79
2020/12/31 01:29:04;;;;;;;8.13;5.03;;;0.10;99.90;;;;;;4769103;30;20044;-78
2020/12/31 01:31:36;;;;;;;7.38;4.65;;;0.10;99.90;;;;;;4783216;30;20047;-78
2020/12/31 01:34:07;;;;;;;6.07;4.22;;;0.00;99.90;;;;;;4769128;30;20051;-79
2020/12/31 01:36:38;;;;;;;7.78;4.70;;;0.00;99.90;;;;;;4769443;30;20048;-79
2020/12/31 01:39:09;;;;;;;7.13;4.70;;;0.00;99.90;;;;;;4768978;30;20141;-79
2020/12/31 01:41:40;;;;;;;5.93;4.32;;;-0.10;99.90;;;;;;4769035;30;20047;-78
2020/12/31 01:44:12;;;;;;;6.30;4.70;;;-0.10;99.90;;;;;;4769039;30;20451;-78
2020/12/31 01:46:46;;;;;;;7.53;4.50;;;-0.10;99.90;;;;;;4783280;29;20047;-78
2020/12/31 01:49:19;;;;;;;;;;;-0.10;99.90;;;;;;4771511;29;20550;-79
2020/12/31 01:51:49;;;;;;;8.98;5.07;;;-0.10;99.90;;;;;;4750300;30;20457;-78
2020/12/31 01:54:21;;;;;;;7.60;4.97;;;-0.10;99.90;;;;;;4765122;30;20534;-78
2020/12/31 01:56:57;;;;;;;5.20;4.30;;;-0.10;99.90;;;;;;4765476;29;20047;-79
2020/12/31 01:59:29;;;;;;;7.60;5.18;;;0.00;99.90;;;;;;4764650;30;20047;-79
2020/12/31 02:01:55;;;;;;;9.60;5.07;;;-0.10;99.90;;;;;;4750058;30;20072;-78
2020/12/31 02:04:27;;;;;;;5.18;4.10;;;-0.10;99.90;;;;;;4766185;30;20067;-78
2020/12/31 02:06:58;;;;;;;6.38;4.35;;;-0.10;99.90;;;;;;4749185;30;20048;-79
2020/12/31 02:09:30;;;;;;;6.05;4.80;;;0.00;99.90;;;;;;4750568;30;20044;-78
2020/12/31 02:12:05;;;;;;;6.47;4.40;;;0.00;99.90;;;;;;4750676;30;20048;-78
2020/12/31 02:14:46;;;;;;;6.82;5.20;;;0.00;99.90;;;;;;4765747;30;20504;-82
2020/12/31 02:17:20;;;;;;;6.57;4.82;;;0.00;99.90;;;;;;4765034;29;20059;-78
2020/12/31 02:19:51;;;;;;;6.70;5.00;;;0.00;99.90;;;;;;4750399;30;20069;-78
2020/12/31 02:22:22;;;;;;;5.05;4.05;;;0.00;99.90;;;;;;4764897;30;20167;-78
2020/12/31 02:24:54;;;;;;;5.70;4.32;;;0.00;99.90;;;;;;4751009;30;20052;-78
2020/12/31 02:27:25;;;;;;;7.18;5.03;;;0.00;99.90;;;;;;4751155;30;20389;-78
2020/12/31 02:29:56;;;;;;;6.13;4.60;;;0.10;99.90;;;;;;4750780;30;20052;-78
2020/12/31 02:32:27;;;;;;;8.38;4.65;;;0.00;99.90;;;;;;4767221;30;20051;-78
2020/12/31 02:34:54;;;;;;;7.30;5.05;;;0.00;99.90;;;;;;4753796;30;20150;-78
2020/12/31 02:37:20;;;;;;;6.90;4.40;;;0.00;99.90;;;;;;4768475;30;20075;-78
2020/12/31 02:39:51;;;;;;;7.25;4.90;;;0.00;99.90;;;;;;4753840;30;20263;-78
2020/12/31 02:42:17;;;;;;;7.22;5.72;;;-0.10;99.90;;;;;;4753721;30;20447;-78
2020/12/31 02:44:48;;;;;;;7.10;5.43;;;-0.10;99.90;;;;;;4769448;30;20051;-78
2020/12/31 02:47:19;;;;;;;7.28;5.20;;;-0.10;99.90;;;;;;4768013;30;20054;-78
2020/12/31 02:49:51;;;;;;;7.82;5.53;;;-0.10;99.90;;;;;;4754231;30;20079;-78
2020/12/31 02:52:22;;;;;;;8.48;5.43;;;-0.10;99.90;;;;;;4754137;30;20054;-78
2020/12/31 02:54:53;;;;;;;8.65;5.32;;;-0.10;99.90;;;;;;4767732;30;20282;-78
2020/12/31 02:57:24;;;;;;;9.63;4.93;;;-0.10;99.90;;;;;;4754281;30;20058;-78
2020/12/31 02:59:55;;;;;;;8.60;5.72;;;-0.10;99.90;;;;;;4753663;30;20070;-78
2020/12/31 03:02:27;;;;;;;7.65;5.60;;;-0.10;99.90;;;;;;4753758;30;20473;-78
2020/12/31 03:04:58;;;;;;;7.88;5.47;;;0.00;99.90;;;;;;4753915;30;20050;-78
2020/12/31 03:07:29;;;;;;;9.15;5.45;;;0.00;99.90;;;;;;4754015;30;20079;-78
2020/12/31 03:10:00;;;;;;;7.93;5.57;;;0.10;99.90;;;;;;4769182;30;20044;-78
2020/12/31 03:12:31;;;;;;;7.32;5.70;;;0.10;99.90;;;;;;4754107;30;20439;-78
2020/12/31 03:15:08;;;;;;;7.65;5.55;;;0.10;99.90;;;;;;4768336;30;20048;-78
2020/12/31 03:17:40;;;;;;;7.22;5.45;;;0.10;99.90;;;;;;4754076;30;20078;-78
2020/12/31 03:20:11;;;;;;;6.72;4.80;;;0.10;99.90;;;;;;4768223;29;20047;-78
2020/12/31 03:22:43;;;;;;;8.73;5.43;;;0.20;99.90;;;;;;4753842;30;20055;-78
2020/12/31 03:25:14;;;;;;;6.95;5.43;;;0.10;99.90;;;;;;4768147;30;20432;-78
2020/12/31 03:27:45;;;;;;;7.50;5.50;;;0.20;99.90;;;;;;4768189;30;20126;-78
2020/12/31 03:30:17;;;;;;;8.50;6.15;;;0.20;99.90;;;;;;4753983;30;20052;-78
2020/12/31 03:32:48;;;;;;;6.90;5.05;;;0.20;99.90;;;;;;4768427;30;20431;-78
2020/12/31 03:35:19;;;;;;;7.78;5.38;;;0.20;99.90;;;;;;4753983;30;20058;-78
2020/12/31 03:37:50;;;;;;;7.53;4.80;;;0.20;99.90;;;;;;4753425;30;20394;-78
2020/12/31 03:40:22;;;;;;;6.82;5.15;;;0.20;99.90;;;;;;4753686;30;20059;-78
2020/12/31 03:42:53;;;;;;;7.15;4.70;;;0.20;99.90;;;;;;4767004;30;20522;-78
2020/12/31 03:45:25;;;;;;;7.68;5.20;;;0.20;99.90;;;;;;4767559;30;20489;-78
2020/12/31 03:47:56;;;;;;;7.10;5.05;;;0.20;99.90;;;;;;4767571;30;20048;-78
2020/12/31 03:50:28;;;;;;;7.63;4.93;;;0.20;99.90;;;;;;4767540;30;20055;-78
2020/12/31 03:52:54;;;;;;;5.88;4.47;;;0.20;99.90;;;;;;4767529;30;20397;-78
2020/12/31 03:55:25;;;;;;;8.65;5.13;;;0.20;99.90;;;;;;4753076;30;20062;-78
2020/12/31 03:57:57;;;;;;;7.28;4.82;;;0.20;99.90;;;;;;4753179;30;20058;-78
2020/12/31 04:00:28;;;;;;;6.47;4.75;;;0.20;99.90;;;;;;4767226;29;20151;-78
2020/12/31 04:02:59;;;;;;;7.65;5.15;;;0.10;99.90;;;;;;4753283;30;20047;-78
2020/12/31 04:05:30;;;;;;;6.60;4.40;;;0.10;99.90;;;;;;4767180;30;20047;-78
2020/12/31 04:08:02;;;;;;;6.88;4.95;;;0.00;99.90;;;;;;4766880;30;20147;-78
2020/12/31 04:10:33;;;;;;;9.18;5.45;;;0.00;99.90;;;;;;4753040;30;20534;-78
2020/12/31 04:13:04;;;;;;;6.90;4.82;;;-0.10;99.90;;;;;;4752976;30;20587;-78
2020/12/31 04:15:35;;;;;;;7.88;5.07;;;-0.10;99.90;;;;;;4767171;30;20058;-78
2020/12/31 04:18:07;;;;;;;8.40;5.57;;;-0.10;99.90;;;;;;4767036;30;20078;-78
2020/12/31 04:20:38;;;;;;;7.65;4.97;;;-0.10;99.90;;;;;;4753033;30;20069;-78
2020/12/31 04:23:09;;;;;;;7.80;4.85;;;-0.20;99.90;;;;;;4752860;30;20533;-78
2020/12/31 04:25:40;;;;;;;7.70;5.30;;;-0.20;99.90;;;;;;4752891;30;20430;-78
2020/12/31 04:28:11;;;;;;;7.10;4.82;;;-0.20;99.90;;;;;;4766958;30;20056;-78
2020/12/31 04:30:47;;;;;;;7.85;5.43;;;-0.30;99.90;;;;;;4752739;30;20043;-78
2020/12/31 04:33:18;;;;;;;7.72;5.43;;;-0.30;99.90;;;;;;4768008;30;20135;-78
2020/12/31 04:35:49;;;;;;;8.23;5.32;;;-0.40;99.90;;;;;;4752600;30;20058;-78
2020/12/31 04:38:21;;;;;;;7.85;5.32;;;-0.40;99.90;;;;;;4752307;30;20055;-78
2020/12/31 04:40:53;;;;;;;7.93;5.35;;;-0.50;99.90;;;;;;4766764;29;20051;-78
2020/12/31 04:43:24;;;;;;;8.85;5.47;;;-0.50;99.90;;;;;;4752199;30;20452;-79
2020/12/31 04:45:56;;;;;;;8.15;5.78;;;-0.40;99.90;;;;;;4766788;30;20397;-78
2020/12/31 04:48:38;;;;;;;8.80;5.75;;;-0.50;99.90;;;;;;4752317;30;20058;-78
2020/12/31 04:51:13;;;;;;;9.43;5.35;;;-0.50;99.90;;;;;;4752408;30;20062;-78
2020/12/31 04:53:50;;;;;;;8.77;5.63;;;-0.50;99.90;;;;;;4751972;30;20047;-78
2020/12/31 04:56:24;;;;;;;9.13;6.28;;;-0.60;99.90;;;;;;4752254;30;20043;-78
2020/12/31 04:58:56;;;;;;;7.55;5.38;;;-0.60;99.90;;;;;;4766216;30;20057;-78
2020/12/31 05:01:27;;;;;;;9.20;5.38;;;-0.60;99.90;;;;;;4768003;30;20135;-78
2020/12/31 05:03:59;;;;;;;9.73;6.05;;;-0.60;99.90;;;;;;4766229;30;20058;-79
2020/12/31 05:06:35;;;;;;;8.45;5.80;;;-0.60;99.90;;;;;;4752225;30;20070;-78
2020/12/31 05:09:14;;;;;;;8.27;4.95;;;-0.70;99.90;;;;;;4752038;30;20528;-79
2020/12/31 05:11:52;;;;;;;8.88;5.68;;;-0.70;99.90;;;;;;4752216;30;20416;-79
2020/12/31 05:14:32;;;;;;;8.60;5.57;;;-0.70;99.90;;;;;;4752119;30;20069;-78
2020/12/31 05:17:15;;;;;;;10.15;5.32;;;-0.70;99.90;;;;;;4751748;30;20062;-78
2020/12/31 05:19:41;;;;;;;10.50;6.05;;;-0.70;99.90;;;;;;4751197;30;20138;-76
2020/12/31 05:22:18;;;;;;;11.10;5.78;;;-0.80;99.90;;;;;;4765935;30;20062;-76
2020/12/31 05:24:52;;;;;;;9.50;5.57;;;-0.80;99.90;;;;;;4751354;30;20520;-76
2020/12/31 05:27:29;;;;;;;10.27;5.88;;;-0.80;99.90;;;;;;4751842;30;20143;-76
2020/12/31 05:30:08;;;;;;;8.38;5.43;;;-0.90;99.90;;;;;;4751816;30;20068;-76
2020/12/31 05:32:40;;;;;;;9.07;5.60;;;-0.90;99.90;;;;;;4752008;30;20051;-76
2020/12/31 05:35:14;;;;;;;8.57;5.53;;;-0.90;99.90;;;;;;4751632;30;20555;-76
2020/12/31 05:37:40;;;;;;;7.55;4.85;;;-0.90;99.90;;;;;;4765816;30;20059;-77
2020/12/31 05:40:13;;;;;;;7.93;5.22;;;-0.90;99.90;;;;;;4765916;30;20056;-76
2020/12/31 05:42:42;;;;;;;10.32;5.50;;;-1.00;99.90;;;;;;4750799;30;20521;-76
2020/12/31 05:45:18;;;;;;;7.85;4.97;;;-1.00;99.90;;;;;;4751635;30;20058;-76
2020/12/31 05:47:51;;;;;;;7.05;4.65;;;-1.00;99.90;;;;;;4750788;30;20504;-76
2020/12/31 05:50:27;;;;;;;8.13;5.53;;;-1.00;99.90;;;;;;4751103;30;20055;-77
2020/12/31 05:52:59;;;;;;;6.30;5.05;;;-1.00;99.90;;;;;;4765350;30;20051;-76
2020/12/31 05:55:26;;;;;;;8.93;5.40;;;-1.00;99.90;;;;;;4750577;30;20143;-77
2020/12/31 05:57:57;;;;;;;8.23;5.22;;;-1.00;99.90;;;;;;4764955;30;20411;-76
2020/12/31 06:00:30;;;;;;;9.13;6.00;;;-1.00;99.90;;;;;;4765569;30;20051;-76
2020/12/31 06:03:00;;;;;;;7.15;5.35;;;-1.00;99.90;;;;;;4750606;30;20518;-76
2020/12/31 06:05:32;;;;;;;9.73;5.15;;;-1.00;99.90;;;;;;4751431;30;20069;-78
2020/12/31 06:08:04;;;;;;;9.63;5.80;;;-1.00;99.90;;;;;;4753560;30;20140;-78
2020/12/31 06:10:31;;;;;;;9.43;6.07;;;-1.00;99.90;;;;;;4753944;30;20419;-78
2020/12/31 06:13:05;;;;;;;10.27;6.40;;;-1.00;99.90;;;;;;4768772;29;20048;-78
2020/12/31 06:15:37;;;;;;;8.82;5.22;;;-1.10;99.90;;;;;;4755311;30;20051;-78
2020/12/31 06:18:11;;;;;;;11.05;5.53;;;-1.10;99.90;;;;;;4756122;30;20079;-79
2020/12/31 06:20:44;;;;;;;7.45;5.03;;;-1.10;99.90;;;;;;4754858;30;20055;-78
2020/12/31 06:23:14;;;;;;;13.40;5.43;;;-1.20;99.90;;;;;;4770409;30;20118;-78
2020/12/31 06:25:48;;;;;;;8.48;4.75;;;-1.20;99.90;;;;;;4755748;30;20055;-79
2020/12/31 06:28:22;;;;;;;9.95;5.40;;;-1.20;99.90;;;;;;4770349;30;20139;-79
2020/12/31 06:30:55;;;;;;;9.10;5.60;;;-1.20;99.90;;;;;;4755996;30;20048;-78
2020/12/31 06:33:30;;;;;;;8.98;5.82;;;-1.20;99.90;;;;;;4756157;30;20047;-78
2020/12/31 06:36:03;;;;;;;8.73;5.63;;;-1.20;99.90;;;;;;4755446;30;20047;-78
2020/12/31 06:38:36;;;;;;;9.15;5.40;;;-1.20;99.90;;;;;;4743029;30;20139;-78
2020/12/31 06:41:52;;;;;;;7.40;5.57;;;-1.20;99.90;;;;;;4768122;30;20427;-79
2020/12/31 06:44:29;;;;;;;9.30;5.47;;;-1.20;99.90;;;;;;4750056;30;20527;-78
2020/12/31 06:47:03;;;;;;;13.85;7.40;;;-1.20;99.90;;;;;;4745352;30;20119;-78
2020/12/31 06:49:52;;;;;;;11.85;7.82;;;-1.20;99.90;;;;;;4753685;30;20055;-78
2020/12/31 06:52:26;;;;;;;;;;;-1.20;99.90;;;;;;4755978;30;20052;-78
2020/12/31 06:54:57;;;;;;;10.43;6.43;;;-1.20;99.90;;;;;;4764111;30;19933;-78
2020/12/31 06:57:38;;;;;;;7.72;5.38;;;-1.20;99.90;;;;;;4752798;30;20295;-78
2020/12/31 07:00:29;;;;;;;8.52;5.47;;;-1.30;99.90;;;;;;4761150;29;20062;-78
2020/12/31 07:03:00;;;;;;;6.68;5.18;;;-1.30;99.90;;;;;;4756090;30;20375;-78
2020/12/31 07:05:31;;;;;;;7.28;4.90;;;-1.30;99.90;;;;;;4760911;30;20058;-78
2020/12/31 07:08:02;;;;;;;8.07;5.25;;;-1.40;99.90;;;;;;4761765;30;20074;-79
2020/12/31 07:10:49;;;;;;;9.38;5.72;;;-1.40;99.90;;;;;;4768945;30;20048;-78
2020/12/31 07:13:32;;;;;;;10.77;6.50;;;-1.30;99.90;;;;;;4752171;30;20056;-78
2020/12/31 07:16:03;;;;;;;16.38;8.75;;;-1.40;99.90;;;;;;4752769;30;20056;-79
2020/12/31 07:18:35;;;;;;;249.15;101.85;;;-1.30;99.90;;;;;;4744601;30;20052;-80
2020/12/31 07:21:01;;;;;;;52.92;26.27;;;-1.30;99.90;;;;;;4758454;30;20080;-78
2020/12/31 07:23:39;;;;;;;20.60;12.23;;;-1.30;99.90;;;;;;4751374;30;20047;-80
2020/12/31 07:26:10;;;;;;;31.27;15.75;;;-1.20;99.90;;;;;;4786162;30;20051;-79
2020/12/31 07:28:43;;;;;;;14.68;10.05;;;-1.10;99.90;;;;;;4771270;30;20053;-80
2020/12/31 07:31:41;;;;;;;17.25;8.65;;;-1.00;99.90;;;;;;4761770;30;20048;-79
2020/12/31 07:34:31;;;;;;;10.82;7.28;;;-0.90;99.90;;;;;;4759487;30;20066;-79
2020/12/31 07:37:06;;;;;;;9.70;6.70;;;-1.00;99.90;;;;;;4769144;30;20094;-79
2020/12/31 07:39:38;;;;;;;10.65;6.10;;;-1.00;99.90;;;;;;4736873;30;20054;-79
2020/12/31 07:42:17;;;;;;;20.98;11.35;;;-1.10;99.90;;;;;;4751957;30;20079;-81
2020/12/31 07:44:50;;;;;;;34.08;19.55;;;-1.10;99.90;;;;;;4736880;30;20058;-79
2020/12/31 07:47:23;;;;;;;27.15;15.77;;;-1.20;99.90;;;;;;4736864;30;20055;-80
2020/12/31 07:49:54;;;;;;;37.45;21.15;;;-1.20;99.90;;;;;;4736335;30;20076;-79
2020/12/31 07:52:25;;;;;;;17.35;10.15;;;-1.20;99.90;;;;;;4752932;30;20048;-79
2020/12/31 07:55:02;;;;;;;9.40;6.63;;;-1.20;99.90;;;;;;4768795;30;20150;-79
2020/12/31 07:57:37;;;;;;;10.27;5.78;;;-1.20;99.90;;;;;;4755274;30;20147;-79
2020/12/31 08:00:27;;;;;;;8.68;5.70;;;-1.20;99.90;;;;;;4754922;30;20055;-79
2020/12/31 08:02:58;;;;;;;6.50;4.55;;;-1.20;99.90;;;;;;4754170;30;20139;-80
2020/12/31 08:05:27;;;;;;;7.15;4.78;;;-1.10;99.90;;;;;;4768890;30;20090;-80
2020/12/31 08:07:58;;;;;;;8.40;5.20;;;-1.10;99.90;;;;;;4750124;30;20131;-79
2020/12/31 08:10:34;;;;;;;6.82;5.35;;;-1.10;99.90;;;;;;4737712;30;20513;-80
2020/12/31 08:13:05;;;;;;;8.82;5.30;;;-1.10;99.90;;;;;;4768035;30;20496;-79
2020/12/31 08:15:37;;;;;;;7.30;4.93;;;-1.20;99.90;;;;;;4767176;30;20058;-78
2020/12/31 08:18:08;;;;;;;7.63;4.80;;;-1.20;99.90;;;;;;4751900;30;20114;-79
2020/12/31 08:20:38;;;;;;;6.38;4.72;;;-1.10;99.90;;;;;;4766328;30;20052;-79
2020/12/31 08:23:17;;;;;;;6.78;4.53;;;-1.10;99.90;;;;;;4765344;30;20135;-78
2020/12/31 08:25:51;;;;;;;9.15;5.78;;;-1.00;99.90;;;;;;4765726;30;20058;-79
2020/12/31 08:28:23;;;;;;;6.60;4.15;;;-1.00;99.90;;;;;;4765718;30;20580;-78
2020/12/31 08:30:50;;;;;;;6.60;4.47;;;-1.00;99.90;;;;;;4765457;30;20080;-79
2020/12/31 08:33:26;;;;;;;6.82;4.53;;;-0.90;99.90;;;;;;4765521;30;20058;-79
2020/12/31 08:35:57;;;;;;;7.32;4.72;;;-0.90;99.90;;;;;;4765522;30;20058;-79
2020/12/31 08:38:36;;;;;;;7.85;4.95;;;-0.90;99.90;;;;;;4765315;30;20051;-80
2020/12/31 08:41:08;;;;;;;7.90;4.72;;;-0.80;99.90;;;;;;4765207;30;20056;-79
2020/12/31 08:43:40;;;;;;;6.70;4.20;;;-0.80;99.90;;;;;;4764885;30;20484;-79
2020/12/31 08:46:21;;;;;;;6.47;4.80;;;-0.70;99.90;;;;;;4752031;30;20131;-79
2020/12/31 08:48:54;;;;;;;7.15;4.65;;;-0.70;99.90;;;;;;4764958;30;20419;-79
2020/12/31 08:51:29;;;;;;;7.90;4.45;;;-0.70;99.90;;;;;;4751717;30;20126;-79
2020/12/31 08:54:01;;;;;;;6.57;4.55;;;-0.70;99.90;;;;;;4765322;30;20059;-79
2020/12/31 08:56:33;;;;;;;8.32;5.25;;;-0.60;99.90;;;;;;4764690;30;20056;-79
2020/12/31 08:59:09;;;;;;;6.32;4.53;;;-0.60;99.90;;;;;;4750598;29;20062;-79
2020/12/31 09:01:42;;;;;;;6.68;4.88;;;-0.50;99.90;;;;;;4767972;30;20040;-79
2020/12/31 09:04:18;;;;;;;7.93;4.65;;;-0.40;99.90;;;;;;4754003;30;20142;-80
2020/12/31 09:06:52;;;;;;;6.63;4.32;;;-0.30;99.90;;;;;;4754801;30;20043;-79
2020/12/31 09:09:28;;;;;;;;;;;-0.20;99.90;;;;;;4750321;30;20139;-80
2020/12/31 09:12:05;;;;;;;6.88;4.13;;;-0.10;99.90;;;;;;4765473;30;19926;-80
2020/12/31 09:14:38;;;;;;;6.95;4.63;;;0.00;99.90;;;;;;4771136;29;20470;-79
2020/12/31 09:17:24;;;;;;;6.28;4.35;;;0.10;99.90;;;;;;4756019;30;20063;-80
2020/12/31 09:19:56;;;;;;;9.95;5.00;;;0.10;99.90;;;;;;4771590;30;20081;-79
2020/12/31 09:22:27;;;;;;;8.77;4.82;;;0.20;99.90;;;;;;4774374;30;20047;-80
2020/12/31 09:25:09;;;;;;;6.28;4.47;;;0.30;99.90;;;;;;4785702;30;20051;-79
2020/12/31 09:27:41;;;;;;;6.63;4.55;;;0.40;99.90;;;;;;4782895;29;20071;-79
2020/12/31 09:30:15;;;;;;;7.80;5.15;;;0.50;99.90;;;;;;4750217;30;20083;-79
2020/12/31 09:32:47;;;;;;;8.30;4.88;;;0.60;99.90;;;;;;4746978;30;20082;-80
2020/12/31 09:35:18;;;;;;;7.43;4.78;;;0.60;99.90;;;;;;4750750;30;20052;-79
2020/12/31 09:37:56;;;;;;;8.38;5.57;;;0.60;99.90;;;;;;4750504;30;20150;-80
2020/12/31 09:40:28;;;;;;;9.80;6.25;;;0.60;99.90;;;;;;4753180;30;20048;-79
2020/12/31 09:42:55;;;;;;;11.55;5.40;;;0.60;99.90;;;;;;4768460;30;20108;-78
2020/12/31 09:45:29;;;;;;;8.05;5.45;;;0.60;99.90;;;;;;4789827;30;20049;-79
2020/12/31 09:48:01;;;;;;;8.55;4.88;;;0.70;99.90;;;;;;4790240;30;20399;-80
2020/12/31 09:50:33;;;;;;;9.18;5.57;;;0.70;99.90;;;;;;4789627;30;20051;-79
2020/12/31 09:53:04;;;;;;;9.13;5.57;;;0.80;99.90;;;;;;4775264;30;20047;-80
2020/12/31 09:55:35;;;;;;;8.52;5.60;;;0.80;99.90;;;;;;4774211;30;20077;-79
2020/12/31 09:58:06;;;;;;;7.10;5.18;;;0.90;99.90;;;;;;4789734;30;20499;-80
2020/12/31 10:00:38;;;;;;;9.13;4.93;;;1.00;99.90;;;;;;4758315;30;20508;-79
2020/12/31 10:03:04;;;;;;;6.80;4.50;;;1.00;99.90;;;;;;4757446;30;20047;-80
2020/12/31 10:05:30;;;;;;;6.50;4.20;;;1.10;99.90;;;;;;4773070;30;20051;-79
2020/12/31 10:08:02;;;;;;;6.55;4.97;;;1.20;99.90;;;;;;4794727;30;20051;-80
2020/12/31 10:10:28;;;;;;;6.95;4.43;;;1.20;99.90;;;;;;4796030;30;20467;-82
2020/12/31 10:15:52;;;;;;;6.05;4.07;;;1.40;99.90;;;;;;5412411;24;20059;-79
2020/12/31 10:18:20;;;;;;;5.38;3.30;;;1.40;99.90;;;;;;4779864;29;20118;-80
2020/12/31 10:20:47;;;;;;;5.15;2.90;;;1.50;99.90;;;;;;4779079;29;20051;-80
2020/12/31 10:23:19;;;;;;;5.65;2.88;;;1.60;99.90;;;;;;4789879;29;20119;-80
2020/12/31 10:25:47;;;;;;;4.35;2.72;;;1.70;99.90;;;;;;4804553;29;20051;-79
2020/12/31 10:28:15;;;;;;;5.22;3.75;;;1.80;99.90;;;;;;4798262;29;20047;-80
2020/12/31 10:30:41;;;;;;;4.95;3.58;;;1.90;99.90;;;;;;4792556;29;20054;-80
2020/12/31 10:33:13;;;;;;;4.47;2.70;;;2.00;99.90;;;;;;4780395;29;20047;-79
2020/12/31 10:35:40;;;;;;;4.32;2.70;;;2.00;99.90;;;;;;4773064;29;20056;-80
2020/12/31 10:38:06;;;;;;;3.08;2.38;;;2.10;99.90;;;;;;4767418;29;20075;-79
2020/12/31 10:40:38;;;;;;;4.35;2.38;;;2.20;99.90;;;;;;4793503;29;20108;-80
2020/12/31 10:43:10;;;;;;;3.60;2.42;;;2.20;99.90;;;;;;4787970;29;20063;-81
2020/12/31 10:45:41;;;;;;;4.15;2.53;;;2.30;99.90;;;;;;4765451;29;20063;-80
2020/12/31 10:48:11;;;;;;;3.10;1.90;;;2.40;99.90;;;;;;4783590;29;20134;-79
2020/12/31 10:50:43;;;;;;;5.72;2.95;;;2.50;98.80;;;;;;4810748;29;20039;-79
2020/12/31 10:53:10;;;;;;;2.22;1.90;;;2.60;99.10;;;;;;4803479;29;20501;-79
2020/12/31 10:55:41;;;;;;;3.00;2.00;;;2.60;98.10;;;;;;4805059;29;20130;-79
2020/12/31 10:58:08;;;;;;;2.90;1.90;;;2.70;98.20;;;;;;4794678;29;20527;-80
2020/12/31 11:00:39;;;;;;;2.50;1.63;;;2.80;97.30;;;;;;4789914;29;20051;-79
2020/12/31 11:03:06;;;;;;;2.30;1.60;;;2.80;97.10;;;;;;4779308;29;20055;-79
2020/12/31 11:05:40;;;;;;;2.40;1.33;;;2.90;96.10;;;;;;4788367;29;20047;-79
2020/12/31 11:08:12;;;;;;;2.78;1.73;;;2.90;95.80;;;;;;4800501;29;20043;-79
2020/12/31 11:10:43;;;;;;;1.95;1.40;;;3.00;95.70;;;;;;4790610;29;20134;-79
2020/12/31 11:13:09;;;;;;;2.55;1.48;;;3.00;95.90;;;;;;4770814;29;20059;-80
2020/12/31 11:15:41;;;;;;;3.45;1.55;;;3.00;95.50;;;;;;4770239;30;20052;-79
2020/12/31 11:18:08;;;;;;;3.22;2.40;;;3.10;95.30;;;;;;4770050;30;20147;-79
2020/12/31 11:20:39;;;;;;;2.08;1.55;;;3.10;95.30;;;;;;4770145;30;20054;-79
2020/12/31 11:23:12;;;;;;;2.90;1.80;;;3.20;95.40;;;;;;4777327;30;20144;-79
2020/12/31 11:25:43;;;;;;;2.90;1.83;;;3.30;95.60;;;;;;4788294;29;20175;-79
2020/12/31 11:28:09;;;;;;;5.10;2.10;;;3.30;95.70;;;;;;4787536;29;20071;-79
2020/12/31 11:30:42;;;;;;;3.17;2.08;;;3.40;95.00;;;;;;4801520;29;20054;-79
2020/12/31 11:33:13;;;;;;;2.65;1.85;;;3.50;95.00;;;;;;4788461;29;20134;-79
2020/12/31 11:35:45;;;;;;;2.58;2.13;;;3.50;94.70;;;;;;4790637;29;20053;-79
2020/12/31 11:38:12;;;;;;;3.13;2.00;;;3.60;94.20;;;;;;4770888;29;20405;-79
2020/12/31 11:40:43;;;;;;;2.38;1.90;;;3.50;94.10;;;;;;4790613;29;20062;-81
2020/12/31 11:43:14;;;;;;;3.00;2.00;;;3.60;94.40;;;;;;4778734;29;20062;-81
2020/12/31 11:45:42;;;;;;;3.72;2.50;;;3.60;94.40;;;;;;4792663;29;20078;-82
2020/12/31 11:48:09;;;;;;;2.97;2.40;;;3.60;94.60;;;;;;4792598;29;20142;-82
2020/12/31 11:50:35;;;;;;;3.35;2.10;;;3.60;94.80;;;;;;4776988;29;20510;-80
2020/12/31 11:53:02;;;;;;;3.13;2.08;;;3.60;93.70;;;;;;4793092;29;20059;-82
2020/12/31 11:55:29;;;;;;;3.92;2.10;;;3.60;93.80;;;;;;4796650;29;20123;-81
2020/12/31 11:57:55;;;;;;;3.20;2.13;;;3.60;93.80;;;;;;4796567;29;20092;-82
2020/12/31 12:00:22;;;;;;;2.45;2.20;;;3.60;93.10;;;;;;4810810;29;20456;-80
2020/12/31 12:02:59;;;;;;;4.10;2.60;;;3.60;93.60;;;;;;4975898;24;20033;31
2020/12/31 12:05:26;;;;;;;4.93;4.05;;;3.60;93.80;;;;;;4765640;30;20262;-81
2020/12/31 12:07:53;;;;;;;6.25;4.03;;;3.60;93.00;;;;;;4756199;30;20116;-81
2020/12/31 12:10:24;;;;;;;2.83;2.50;;;3.60;93.80;;;;;;4758237;30;20406;-83
2020/12/31 12:15:49;;;;;;;3.63;2.20;;;3.60;93.00;;;;;;4791799;30;20118;-80
2020/12/31 12:18:23;;;;;;;4.45;2.13;;;3.60;93.10;;;;;;4788898;30;20115;-82
2020/12/31 12:20:55;;;;;;;3.92;2.30;;;3.60;93.10;;;;;;4778017;30;20085;-79
2020/12/31 12:23:22;;;;;;;3.55;1.83;;;3.60;92.60;;;;;;4791747;29;20063;-79
2020/12/31 12:25:58;;;;;;;3.17;2.33;;;3.60;93.00;;;;;;4788477;29;20059;-79
2020/12/31 12:28:28;;;;;;;3.38;2.45;;;3.70;93.00;;;;;;4788493;29;20085;-79
2020/12/31 12:30:55;;;;;;;4.07;2.47;;;3.80;92.90;;;;;;4787463;29;20043;-80
2020/12/31 12:33:27;;;;;;;3.50;1.92;;;3.80;93.20;;;;;;4787333;30;20112;-79
2020/12/31 12:35:54;;;;;;;3.65;2.13;;;3.90;92.90;;;;;;4772628;30;20059;-80
2020/12/31 12:38:25;;;;;;;2.90;2.17;;;4.00;92.70;;;;;;4773173;30;20051;-80
2020/12/31 12:40:57;;;;;;;3.13;2.03;;;4.10;93.10;;;;;;4788337;29;20051;-79
2020/12/31 12:43:29;;;;;;;3.13;2.20;;;4.20;91.90;;;;;;4772970;30;20048;-79
2020/12/31 12:46:00;;;;;;;2.85;2.05;;;4.20;91.70;;;;;;4773097;30;20055;-79
2020/12/31 12:48:32;;;;;;;4.05;2.08;;;4.30;91.90;;;;;;4787780;29;20104;-79
2020/12/31 12:51:04;;;;;;;3.00;1.77;;;4.30;91.20;;;;;;4786859;29;20465;-79
2020/12/31 12:53:36;;;;;;;3.17;2.10;;;4.40;91.10;;;;;;4787025;30;20063;-80
2020/12/31 12:56:11;;;;;;;3.45;2.05;;;4.50;91.60;;;;;;4772822;30;20055;-79
2020/12/31 12:58:39;;;;;;;3.33;1.80;;;4.60;91.00;;;;;;4786755;30;20055;-79
2020/12/31 13:01:05;;;;;;;4.63;1.83;;;4.70;90.50;;;;;;4787101;29;20051;-80
2020/12/31 13:03:32;;;;;;;2.65;1.70;;;4.60;90.20;;;;;;4772670;30;20043;-80
2020/12/31 13:06:04;;;;;;;3.45;2.15;;;4.60;90.10;;;;;;4788738;29;20116;-79
2020/12/31 13:08:35;;;;;;;6.10;3.20;;;4.60;90.40;;;;;;4787128;30;20130;-80
2020/12/31 13:11:07;;;;;;;4.63;3.03;;;4.70;92.10;;;;;;4787537;29;20123;-80
2020/12/31 13:13:39;;;;;;;6.22;3.90;;;4.70;92.00;;;;;;4772206;30;20047;-79
2020/12/31 13:16:09;;;;;;;9.68;4.60;;;4.70;92.20;;;;;;4786305;29;20603;-80
2020/12/31 13:18:36;;;;;;;4.22;2.35;;;4.70;92.30;;;;;;4787587;29;20055;-80
2020/12/31 13:21:08;;;;;;;4.07;2.20;;;4.60;91.90;;;;;;4772870;30;20055;-79
2020/12/31 13:23:35;;;;;;;5.18;2.92;;;4.60;92.10;;;;;;4786691;30;20134;-79